createdAt,value
2022-11-12T00:01:03.093Z,100002.53
2022-11-12T00:03:30.006Z,100005.19
2022-11-12T00:05:57.076Z,99978.44
2022-11-12T00:08:24.406Z,100018.63
2022-11-12T00:10:51.553Z,100013.66
2022-11-12T00:13:18.553Z,100011.13
2022-11-12T00:15:47.294Z,100011.13
2022-11-12T00:18:14.522Z,100007.72
2022-11-12T00:20:42.558Z,100003.31
2022-11-12T00:23:09.980Z,100000.66
2022-11-12T00:25:36.947Z,100000.66
2022-11-12T00:28:06.426Z,99996.28
2022-11-12T00:30:33.598Z,99999.94
2022-11-12T00:33:05.114Z,99992.88
2022-11-12T00:35:33.486Z,99953.34
2022-11-12T00:38:01.042Z,99999.09
2022-11-12T00:40:29.049Z,99989.50
2022-11-12T00:42:55.969Z,99993.16
2022-11-12T00:45:23.398Z,99990.59
2022-11-12T00:47:50.554Z,99989.91
2022-11-12T00:50:17.692Z,99981.97
2022-11-12T00:52:44.617Z,99991.00
2022-11-12T00:55:11.727Z,99991.41
2022-11-12T00:57:38.950Z,99976.44
2022-11-12T01:00:07.296Z,99985.59
2022-11-12T01:02:42.276Z,99979.19
2022-11-12T01:05:10.743Z,99992.75
2022-11-12T01:07:37.658Z,99994.38
2022-11-12T01:10:05.004Z,99993.66
2022-11-12T01:12:32.780Z,100001.84
2022-11-12T01:14:59.812Z,99939.56
2022-11-12T01:17:26.938Z,99984.97
2022-11-12T01:19:53.931Z,99987.50
2022-11-12T01:22:20.860Z,99995.72
2022-11-12T01:24:47.749Z,99996.94
2022-11-12T01:27:15.282Z,99973.28
2022-11-12T01:29:42.213Z,99995.91
2022-11-12T01:32:09.165Z,99990.22
2022-11-12T01:34:36.056Z,99993.84
2022-11-12T01:37:03.038Z,99994.97
2022-11-12T01:39:29.949Z,100000.47
2022-11-12T01:41:56.910Z,99999.13
2022-11-12T01:44:27.177Z,99992.03
2022-11-12T01:47:06.960Z,99999.69
2022-11-12T01:49:44.303Z,100006.97
2022-11-12T01:52:25.633Z,100000.19
2022-11-12T01:54:58.698Z,100004.69
2022-11-12T01:57:34.894Z,100003.97
2022-11-12T02:00:07.332Z,99999.59
2022-11-12T02:02:36.487Z,99992.81
2022-11-12T02:05:27.408Z,99995.72
2022-11-12T02:08:20.963Z,99995.59
2022-11-12T02:11:01.404Z,100007.44
2022-11-12T02:14:05.897Z,100003.16
2022-11-12T02:16:53.462Z,100007.81
2022-11-12T02:19:51.338Z,100003.41
2022-11-12T02:22:18.210Z,100001.13
2022-11-12T02:24:45.177Z,100011.34
2022-11-12T02:27:12.868Z,99998.34
2022-11-12T02:29:46.629Z,100004.56
2022-11-12T02:32:14.105Z,100009.19
2022-11-12T02:34:41.758Z,100000.44
2022-11-12T02:37:08.669Z,100005.31
2022-11-12T02:39:35.629Z,100008.00
2022-11-12T02:42:02.580Z,100006.06
2022-11-12T02:44:30.223Z,99998.13
2022-11-12T02:46:57.207Z,100003.50
2022-11-12T02:49:24.346Z,100002.63
2022-11-12T02:51:51.237Z,99991.84
2022-11-12T02:54:18.199Z,99999.16
2022-11-12T02:56:45.123Z,100000.50
2022-11-12T02:59:12.033Z,100003.19
2022-11-12T03:01:39.110Z,99800.06
2022-11-12T03:04:06.050Z,99961.38
2022-11-12T03:06:33.018Z,99995.63
2022-11-12T03:08:59.985Z,100001.72
2022-11-12T03:11:27.584Z,99985.69
2022-11-12T03:13:54.485Z,100003.91
2022-11-12T03:16:21.418Z,100001.47
2022-11-12T03:18:48.326Z,100006.59
2022-11-12T03:21:15.400Z,99997.63
2022-11-12T03:23:42.271Z,100000.56
2022-11-12T03:26:09.191Z,100010.50
2022-11-12T03:28:36.234Z,100005.25
2022-11-12T03:31:03.256Z,100005.75
2022-11-12T03:33:30.241Z,100003.94
2022-11-12T03:35:57.158Z,100004.88
2022-11-12T03:38:24.502Z,100002.00
2022-11-12T03:40:51.793Z,99999.19
2022-11-12T03:43:18.735Z,99991.81
2022-11-12T03:45:45.661Z,99993.00
2022-11-12T03:48:13.299Z,99998.09
2022-11-12T03:50:40.219Z,99994.34
2022-11-12T03:53:07.437Z,99993.63
2022-11-12T03:55:34.502Z,99993.00
2022-11-12T03:58:01.518Z,99991.31
2022-11-12T04:00:30.345Z,99991.44
2022-11-12T04:02:58.347Z,99986.22
2022-11-12T04:05:44.907Z,99987.19
2022-11-12T04:08:36.755Z,99984.50
2022-11-12T04:11:15.396Z,99978.19
2022-11-12T04:13:47.735Z,99989.00
2022-11-12T04:16:39.063Z,99985.47
2022-11-12T04:19:25.917Z,99979.03
2022-11-12T04:21:55.435Z,99991.31
2022-11-12T04:24:42.157Z,99986.91
2022-11-12T04:27:12.857Z,99993.25
2022-11-12T04:29:58.453Z,99986.91
2022-11-12T04:32:26.087Z,99989.47
2022-11-12T04:34:53.939Z,99990.44
2022-11-12T04:37:23.628Z,99990.78
2022-11-12T04:39:51.773Z,99979.09
2022-11-12T04:42:37.631Z,99991.75
2022-11-12T04:45:11.068Z,99969.97
2022-11-12T04:47:40.830Z,99973.72
2022-11-12T04:50:17.168Z,99983.31
2022-11-12T04:52:44.482Z,99992.28
2022-11-12T04:55:11.515Z,99981.59
2022-11-12T04:57:39.452Z,99981.59
2022-11-12T05:00:07.161Z,99875.84
2022-11-12T05:02:34.101Z,99976.13
2022-11-12T05:05:01.006Z,99982.91
2022-11-12T05:07:27.964Z,99987.06
2022-11-12T05:09:54.906Z,99979.28
2022-11-12T05:12:21.870Z,99978.78
2022-11-12T05:14:48.780Z,99971.97
2022-11-12T05:17:15.729Z,99989.78
2022-11-12T05:19:42.689Z,99984.56
2022-11-12T05:22:33.318Z,99940.81
2022-11-12T05:24:59.569Z,99991.84
2022-11-12T05:27:26.605Z,99994.00
2022-11-12T05:29:53.573Z,99948.25
2022-11-12T05:32:20.777Z,99981.78
2022-11-12T05:34:47.746Z,99985.31
2022-11-12T05:37:15.345Z,99981.69
2022-11-12T05:39:42.378Z,99987.38
2022-11-12T05:42:14.144Z,99923.06
2022-11-12T05:44:41.799Z,99995.91
2022-11-12T05:47:08.786Z,99997.78
2022-11-12T05:49:35.688Z,99997.63
2022-11-12T05:52:02.645Z,99997.44
2022-11-12T05:54:29.555Z,100009.78
2022-11-12T05:56:56.467Z,99997.44
2022-11-12T05:59:23.350Z,100008.34
2022-11-12T06:01:50.577Z,100009.53
2022-11-12T06:04:18.492Z,100011.66
2022-11-12T06:06:45.683Z,100003.03
2022-11-12T06:09:12.664Z,100012.19
2022-11-12T06:11:39.807Z,100020.91
2022-11-12T06:14:07.253Z,100022.84
2022-11-12T06:16:34.397Z,100022.63
2022-11-12T06:19:01.333Z,100022.19
2022-11-12T06:21:28.790Z,100028.06
2022-11-12T06:23:59.043Z,100026.63
2022-11-12T06:26:28.754Z,100026.94
2022-11-12T06:28:56.319Z,99972.63
2022-11-12T06:31:23.876Z,100026.59
2022-11-12T06:33:51.257Z,100024.69
2022-11-12T06:36:20.637Z,100010.22
2022-11-12T06:38:48.145Z,100038.31
2022-11-12T06:41:15.249Z,100035.31
2022-11-12T06:43:42.856Z,100029.63
2022-11-12T06:46:14.220Z,100042.00
2022-11-12T06:48:41.818Z,100012.44
2022-11-12T06:51:20.294Z,100033.91
2022-11-12T06:53:47.537Z,100004.03
2022-11-12T06:56:15.631Z,100034.44
2022-11-12T06:58:42.964Z,100045.31
2022-11-12T07:01:15.543Z,100057.97
2022-11-12T07:03:44.329Z,100059.72
2022-11-12T07:06:19.411Z,100053.94
2022-11-12T07:08:50.657Z,100048.63
2022-11-12T07:11:21.475Z,100046.47
2022-11-12T07:13:48.928Z,100056.47
2022-11-12T07:16:18.923Z,100058.47
2022-11-12T07:18:47.065Z,100053.69
2022-11-12T07:21:19.186Z,100042.53
2022-11-12T07:23:47.663Z,100046.81
2022-11-12T07:26:18.165Z,100045.75
2022-11-12T07:28:46.099Z,100041.88
2022-11-12T07:31:15.767Z,100040.06
2022-11-12T07:33:43.922Z,100042.22
2022-11-12T07:36:13.363Z,100032.97
2022-11-12T07:38:42.413Z,100028.97
2022-11-12T07:41:16.094Z,100038.88
2022-11-12T07:43:44.832Z,100039.03
2022-11-12T07:46:20.768Z,100042.84
2022-11-12T07:48:48.334Z,100035.03
2022-11-12T07:51:20.952Z,100047.09
2022-11-12T07:53:49.624Z,100054.53
2022-11-12T07:56:20.421Z,100043.03
2022-11-12T07:58:48.469Z,100045.09
2022-11-12T08:01:30.921Z,100049.38
2022-11-12T08:03:59.426Z,100044.78
2022-11-12T08:06:27.469Z,100026.13
2022-11-12T08:08:58.799Z,100051.56
2022-11-12T08:11:26.744Z,100052.16
2022-11-12T08:13:56.262Z,100057.56
2022-11-12T08:16:23.524Z,100048.25
2022-11-12T08:18:50.439Z,100056.22
2022-11-12T08:21:18.644Z,100051.41
2022-11-12T08:23:46.431Z,100056.53
2022-11-12T08:26:16.297Z,100049.75
2022-11-12T08:28:43.414Z,100055.38
2022-11-12T08:31:16.672Z,100051.41
2022-11-12T08:33:44.535Z,100063.03
2022-11-12T08:36:13.950Z,100065.53
2022-11-12T08:38:41.325Z,100069.94
2022-11-12T08:41:10.744Z,100059.72
2022-11-12T08:43:38.638Z,100059.72
2022-11-12T08:46:05.663Z,100057.03
2022-11-12T08:48:34.710Z,100055.72
2022-11-12T08:51:03.060Z,100065.31
2022-11-12T08:53:30.105Z,100041.06
2022-11-12T08:55:57.782Z,100061.84
2022-11-12T08:58:26.594Z,100053.41
2022-11-12T09:00:54.673Z,100064.69
2022-11-12T09:03:26.918Z,100059.78
2022-11-12T09:05:54.762Z,100058.78
2022-11-12T09:08:24.855Z,100060.94
2022-11-12T09:10:52.467Z,100040.66
2022-11-12T09:13:20.154Z,100058.63
2022-11-12T09:15:47.924Z,100063.50
2022-11-12T09:18:17.869Z,100057.16
2022-11-12T09:20:44.961Z,100059.19
2022-11-12T09:23:15.616Z,100054.31
2022-11-12T09:25:43.634Z,100071.56
2022-11-12T09:28:18.927Z,100051.41
2022-11-12T09:30:50.576Z,100047.06
2022-11-12T09:33:20.470Z,100052.41
2022-11-12T09:35:47.874Z,100050.66
2022-11-12T09:38:18.136Z,100044.97
2022-11-12T09:41:08.234Z,100047.75
2022-11-12T09:43:40.301Z,100032.75
2022-11-12T09:46:28.347Z,100053.28
2022-11-12T09:49:28.193Z,100051.31
2022-11-12T09:52:05.914Z,100050.00
2022-11-12T09:54:35.265Z,100050.69
2022-11-12T09:57:02.705Z,100050.03
2022-11-12T09:59:33.300Z,100047.19
2022-11-12T10:02:19.899Z,100050.38
2022-11-12T10:04:46.776Z,100044.97
2022-11-12T10:07:39.444Z,100053.09
2022-11-12T10:10:10.795Z,100020.47
2022-11-12T10:13:14.807Z,100049.88
2022-11-12T10:16:17.556Z,100047.00
2022-11-12T10:18:59.488Z,100038.16
2022-11-12T10:22:06.918Z,100037.97
2022-11-12T10:24:40.411Z,100030.69
2022-11-12T10:27:19.916Z,100036.13
2022-11-12T10:30:01.301Z,100028.63
2022-11-12T10:32:28.282Z,100032.66
2022-11-12T10:34:55.267Z,100027.53
2022-11-12T10:37:36.177Z,100014.16
2022-11-12T10:40:22.786Z,100028.22
2022-11-12T10:43:00.710Z,100022.56
2022-11-12T10:45:28.549Z,100017.25
2022-11-12T10:47:56.111Z,100022.28
2022-11-12T10:50:29.858Z,100027.03
2022-11-12T10:52:59.820Z,100021.34
2022-11-12T10:55:38.386Z,100024.31
2022-11-12T10:58:11.529Z,100021.94
2022-11-12T11:01:02.676Z,100027.75
2022-11-12T11:03:36.545Z,100036.66
2022-11-12T11:06:15.663Z,100028.69
2022-11-12T11:08:45.300Z,100025.94
2022-11-12T11:11:27.907Z,100027.59
2022-11-12T11:13:57.452Z,100029.94
2022-11-12T11:16:29.478Z,100019.88
2022-11-12T11:19:00.104Z,100019.94
2022-11-12T11:21:45.300Z,100016.78
2022-11-12T11:24:30.875Z,100016.47
2022-11-12T11:27:04.330Z,100014.56
2022-11-12T11:29:46.231Z,100006.44
2022-11-12T11:32:37.463Z,100012.56
2022-11-12T11:35:21.123Z,100022.81
2022-11-12T11:38:03.262Z,100015.50
2022-11-12T11:40:41.104Z,100007.75
2022-11-12T11:43:36.031Z,100015.34
2022-11-12T11:46:27.734Z,100013.41
2022-11-12T11:49:02.831Z,100007.78
2022-11-12T11:52:00.280Z,100009.47
2022-11-12T11:54:45.673Z,99987.22
2022-11-12T11:57:22.155Z,100010.25
2022-11-12T12:00:16.400Z,100000.63
2022-11-12T12:03:01.604Z,100005.44
2022-11-12T12:05:43.723Z,100006.19
2022-11-12T12:08:18.791Z,99994.03
2022-11-12T12:11:08.911Z,99995.91
2022-11-12T12:13:57.848Z,99995.66
2022-11-12T12:16:49.991Z,100003.22
2022-11-12T12:19:25.924Z,99996.03
2022-11-12T12:21:53.724Z,100003.34
2022-11-12T12:24:28.415Z,99988.75
2022-11-12T12:27:09.476Z,99960.44
2022-11-12T12:29:56.512Z,99987.00
2022-11-12T12:32:37.239Z,99987.22
2022-11-12T12:35:16.851Z,99987.41
2022-11-12T12:37:55.729Z,99981.00
2022-11-12T12:40:31.302Z,99987.75
2022-11-12T12:43:32.826Z,99980.19
2022-11-12T12:46:00.258Z,99981.19
2022-11-12T12:48:32.114Z,99984.94
2022-11-12T12:50:59.249Z,99972.97
2022-11-12T12:53:26.097Z,99969.72
2022-11-12T12:55:55.453Z,99972.00
2022-11-12T12:58:41.577Z,99958.81
2022-11-12T13:01:21.272Z,99964.16
2022-11-12T13:03:53.504Z,99966.66
2022-11-12T13:06:23.278Z,99973.72
2022-11-12T13:09:02.321Z,99970.06
2022-11-12T14:25:04.851Z,99891.38
2022-11-12T15:38:03.491Z,99958.84
2022-11-12T17:04:09.458Z,99999.09
2022-11-12T17:06:40.720Z,100001.47
2022-11-12T17:09:10.436Z,99996.81
2022-11-12T17:11:38.097Z,100008.69
2022-11-12T17:14:06.903Z,100014.13
2022-11-12T17:16:35.061Z,100003.47
2022-11-12T17:19:02.620Z,100001.00
2022-11-12T17:21:30.384Z,100003.00
2022-11-12T17:23:58.204Z,100012.81
2022-11-12T17:26:25.175Z,100000.97
2022-11-12T17:29:00.084Z,100007.06
2022-11-12T17:31:31.070Z,100008.78
2022-11-12T17:33:58.219Z,100006.34
2022-11-12T17:36:28.803Z,100009.56
2022-11-12T17:38:57.349Z,100007.00
2022-11-12T17:41:25.223Z,100014.59
2022-11-12T17:43:59.229Z,100010.28
2022-11-12T17:46:27.308Z,100006.78
2022-11-12T17:48:55.375Z,100007.06
2022-11-12T17:51:26.209Z,100012.22
2022-11-12T17:53:54.055Z,99984.22
2022-11-12T17:56:23.213Z,100004.94
2022-11-12T17:58:51.445Z,100001.44
2022-11-12T18:01:22.936Z,100008.81
2022-11-12T18:03:53.307Z,100009.44
2022-11-12T18:06:30.355Z,99999.50
2022-11-12T18:09:06.899Z,99980.53
2022-11-12T18:11:47.130Z,99999.75
2022-11-12T18:14:14.686Z,100008.16
2022-11-12T18:16:42.032Z,99990.03
2022-11-12T18:19:11.275Z,99995.16
2022-11-12T18:21:40.194Z,100007.56
2022-11-12T18:24:12.590Z,100003.44
2022-11-12T18:26:39.714Z,100007.22
2022-11-12T18:29:07.661Z,100000.31
2022-11-12T18:31:34.714Z,100004.31
2022-11-12T18:34:01.926Z,100003.72
2022-11-12T18:36:29.486Z,100004.69
2022-11-12T18:38:56.721Z,100008.56
2022-11-12T18:41:27.068Z,100001.03
2022-11-12T18:43:54.317Z,100013.19
2022-11-12T18:46:21.767Z,100012.09
2022-11-12T18:48:49.218Z,100011.00
2022-11-12T18:51:19.031Z,100009.06
2022-11-12T18:53:46.699Z,100005.41
2022-11-12T18:56:16.807Z,100027.41
2022-11-12T18:58:44.223Z,100017.91
2022-11-12T19:01:17.160Z,100018.03
2022-11-12T19:03:44.801Z,100023.88
2022-11-12T19:06:14.212Z,100031.91
2022-11-12T19:08:41.911Z,100033.94
2022-11-12T19:11:11.585Z,100039.91
2022-11-12T19:13:41.908Z,100042.34
2022-11-12T19:16:17.221Z,100046.59
2022-11-12T19:18:45.321Z,100051.44
2022-11-12T19:21:15.156Z,100051.19
2022-11-12T19:23:43.205Z,100053.38
2022-11-12T19:26:15.589Z,100053.00
2022-11-12T19:28:43.753Z,100049.97
2022-11-12T19:31:25.609Z,100055.75
2022-11-12T19:33:52.625Z,100058.06
2022-11-12T19:36:25.067Z,100056.13
2022-11-12T19:38:56.956Z,100057.81
2022-11-12T19:41:24.693Z,100058.78
2022-11-12T19:43:52.325Z,100059.75
2022-11-12T19:46:20.215Z,100031.44
2022-11-12T19:48:47.372Z,100058.78
2022-11-12T19:51:14.672Z,100061.94
2022-11-12T19:53:46.594Z,100055.63
2022-11-12T19:56:17.420Z,100066.16
2022-11-12T19:58:45.492Z,100034.91
2022-11-12T20:01:14.620Z,100054.69
2022-11-12T20:03:41.699Z,100055.53
2022-11-12T20:06:14.486Z,100060.63
2022-11-12T20:08:42.274Z,100057.25
2022-11-12T20:11:10.314Z,100061.50
2022-11-12T20:13:37.913Z,100063.78
2022-11-12T20:16:25.509Z,100061.00
2022-11-12T20:18:54.833Z,100043.13
2022-11-12T20:21:22.954Z,100053.53
2022-11-12T20:23:50.669Z,100057.78
2022-11-12T20:26:17.693Z,100064.38
2022-11-12T20:28:44.987Z,100057.19
2022-11-12T20:31:17.795Z,100065.97
2022-11-12T20:33:44.740Z,100057.94
2022-11-12T20:36:14.442Z,100064.72
2022-11-12T20:38:43.602Z,100068.09
2022-11-12T20:41:14.918Z,100059.59
2022-11-12T20:43:42.515Z,100065.31
2022-11-12T20:46:11.685Z,100061.78
2022-11-12T20:48:43.309Z,100066.88
2022-11-12T20:51:23.728Z,100060.59
2022-11-12T20:53:59.454Z,100065.69
2022-11-12T20:56:29.190Z,100072.16
2022-11-12T20:58:56.749Z,100061.00
2022-11-12T21:01:25.295Z,100072.28
2022-11-12T21:03:52.725Z,100080.56
2022-11-12T21:06:21.909Z,100077.19
2022-11-12T21:08:49.205Z,100074.25
2022-11-12T21:11:18.263Z,100070.31
2022-11-12T21:13:45.379Z,100067.16
2022-11-12T21:16:13.580Z,100079.09
2022-11-12T21:18:40.967Z,100070.47
2022-11-12T21:21:11.071Z,100068.03
2022-11-12T21:23:40.734Z,100072.28
2022-11-12T21:26:18.359Z,100073.06
2022-11-12T21:28:52.326Z,100073.19
2022-11-12T21:31:21.865Z,100075.47
2022-11-12T21:33:54.915Z,100068.41
2022-11-12T21:36:22.828Z,100071.63
2022-11-12T21:38:50.068Z,100067.69
2022-11-12T21:41:21.432Z,100067.44
2022-11-12T21:43:49.704Z,100074.78
2022-11-12T21:46:22.395Z,100058.81
2022-11-12T21:48:54.941Z,100066.84
2022-11-12T21:51:24.988Z,100063.78
2022-11-12T21:53:57.455Z,100072.41
2022-11-12T21:56:25.290Z,100064.72
2022-11-12T21:58:55.145Z,100072.97
2022-11-12T22:01:27.243Z,100050.13
2022-11-12T22:03:56.758Z,100069.03
2022-11-12T22:06:25.828Z,100071.72
2022-11-12T22:08:54.825Z,100062.75
2022-11-12T22:11:23.120Z,100066.09
2022-11-12T22:13:50.428Z,100062.44
2022-11-12T22:16:22.617Z,100063.28
2022-11-12T22:18:51.691Z,100062.34
2022-11-12T22:21:21.887Z,100062.00
2022-11-12T22:23:49.266Z,100064.34
2022-11-12T22:26:21.432Z,100056.81
2022-11-12T22:28:49.062Z,100050.88
2022-11-12T22:31:19.136Z,100059.47
2022-11-12T22:33:46.624Z,100064.91
2022-11-12T22:36:16.496Z,100065.38
2022-11-12T22:38:46.241Z,100067.69
2022-11-12T22:41:25.602Z,100068.38
2022-11-12T22:43:56.141Z,100061.72
2022-11-12T22:46:25.999Z,100062.25
2022-11-12T22:48:53.842Z,100064.94
2022-11-12T22:51:24.295Z,100063.38
2022-11-12T22:54:00.124Z,100060.09
2022-11-12T22:56:30.680Z,100069.69
2022-11-12T22:58:58.316Z,100066.16
2022-11-12T23:01:28.337Z,100053.00
2022-11-12T23:03:58.491Z,100049.84
2022-11-12T23:06:27.426Z,100043.38
2022-11-12T23:08:56.449Z,100042.31
2022-11-12T23:11:26.254Z,100042.91
2022-11-12T23:13:54.821Z,100038.88
2022-11-12T23:16:26.636Z,100032.19
2022-11-12T23:18:55.363Z,100032.50
2022-11-12T23:21:28.005Z,100034.66
2022-11-12T23:23:58.434Z,100042.03
2022-11-12T23:26:27.664Z,100035.72
2022-11-12T23:28:54.629Z,100040.22
2022-11-12T23:31:27.440Z,100026.31
2022-11-12T23:33:56.442Z,100024.47
2022-11-12T23:36:25.225Z,100024.97
2022-11-12T23:38:52.967Z,100034.09
2022-11-12T23:41:26.152Z,100040.31
2022-11-12T23:43:54.218Z,100031.06
2022-11-12T23:46:22.092Z,100032.06
2022-11-12T23:48:49.074Z,100025.59
2022-11-12T23:51:19.300Z,100027.53
2022-11-12T23:53:46.716Z,100042.00
2022-11-12T23:56:15.539Z,100036.88
2022-11-12T23:58:43.007Z,100034.78
